Mississippi Star — 9HA2441 — position and weather

sailwx.info

Track history (hours):
 
Tides and Currents Weather Stations Pressure Air Temp Water Temp Dewpoint Dewpoint Depression Visibility Wind Speed Wind Dir Waves Ship Positions

Mississippi Star

Last reported at 2014-Oct-31 19:25 UTC. Time now 2014-Oct-31 20:11 UTC.
Position N 55°15' E 014°20'.

Length 128 m; draft 5.7 m.

Type: Ship. MMSI: 248621000.

Date/timePositionNaut miles runAvg speedWind from/ knotsBaromVisibWave heightAir tempDewpointWater temp
2014-Oct-31 19:25N 55°15' E 014°20'1011.3
2014-Oct-31 18:33N 55°23' E 014°31'1211.5
2014-Oct-31 17:33N 55°30' E 014°47'2411.5
2014-Oct-31 15:26N 55°41' E 015°25'29 9.7
2014-Oct-31 12:25N 55°56' E 016°10'7 8.3
2014-Oct-31 11:33N 55°60' E 016°21'36 8.2
2014-Oct-31 07:11N 56°28' E 017°01'911.9
2014-Oct-31 06:27N 56°36' E 017°06'1111.8
2014-Oct-31 05:33N 56°46' E 017°12'1211.7
2014-Oct-31 04:33N 56°57' E 017°20'1211.6
2014-Oct-31 03:33N 57°08' E 017°27'1211.6
2014-Oct-31 02:33N 57°19' E 017°34'1211.5
2014-Oct-31 01:33N 57°29' E 017°42'1211.6
2014-Oct-31 00:33N 57°40' E 017°50'105 9.1
2014-Oct-30 13:06N 59°23' E 018°27'3 5.0
2014-Oct-30 12:26N 59°22' E 018°21'7 0.5
2014-Oct-30 00:17N 59°20' E 018°08'0 0.0
2014-Oct-29 22:17N 59°20' E 018°08'0 0.0
2014-Oct-29 21:29N 59°20' E 018°08'0 0.0
2014-Oct-29 20:20N 59°20' E 018°08'0 0.0
2014-Oct-29 18:17N 59°20' E 018°08'0 0.0
2014-Oct-29 17:29N 59°20' E 018°08'0 0.0
2014-Oct-29 16:27N 59°20' E 018°08'3 3.7
2014-Oct-29 15:33N 59°21' E 018°15'6 5.9
2014-Oct-29 14:29N 59°25' E 018°24'99 7.1
2014-Oct-29 00:33N 57°47' E 018°03'1212.0
2014-Oct-28 23:33N 57°36' E 017°54'1211.7
2014-Oct-28 22:33N 57°25' E 017°46'1211.7
2014-Oct-28 21:33N 57°14' E 017°38'1211.9
2014-Oct-28 20:33N 57°03' E 017°30'1211.7
2014-Oct-28 19:33N 56°52' E 017°23'1211.8
2014-Oct-28 18:33N 56°41' E 017°15'1211.6
2014-Oct-28 17:33N 56°30' E 017°07'1211.6
2014-Oct-28 16:33N 56°19' E 016°60'1211.7
2014-Oct-28 15:33N 56°08' E 016°52'1511.2
2014-Oct-28 14:13N 55°58' E 016°33'1011.9
2014-Oct-28 13:23N 55°53' E 016°17'1011.6
2014-Oct-28 12:33N 55°49' E 016°02'1211.6
2014-Oct-28 11:33N 55°43' E 015°44'1211.7
2014-Oct-28 10:30N 55°37' E 015°25'1111.9
2014-Oct-28 09:33N 55°32' E 015°07'1211.7
2014-Oct-28 08:33N 55°26' E 014°50'1111.0
2014-Oct-28 07:33N 55°20' E 014°33'1313.0
2014-Oct-28 06:33N 55°09' E 014°20'1212.2
2014-Oct-28 05:33N 55°01' E 014°05'1212.3
2014-Oct-28 04:33N 54°57' E 013°45'1212.0
2014-Oct-28 03:32N 54°53' E 013°24'1211.7
2014-Oct-28 02:30N 54°49' E 013°04'1112.1
2014-Oct-28 01:33N 54°45' E 012°46'1212.2
2014-Oct-28 00:33N 54°39' E 012°27'1211.6
2014-Oct-27 23:33N 54°30' E 012°15'1111.5
2014-Oct-27 22:33N 54°24' E 011°58'1312.6
2014-Oct-27 21:32N 54°27' E 011°37'1312.7
2014-Oct-27 20:33N 54°33' E 011°18'1212.4
2014-Oct-27 19:33N 54°39' E 010°59'1210.1
2014-Oct-27 18:20N 54°50' E 010°52'48 2.0
2014-Oct-26 18:27N 55°39' E 010°47'3210.9
2014-Oct-26 15:28N 55°07' E 011°03'1312.0
2014-Oct-26 14:24N 54°55' E 010°55'2910.3
2014-Oct-26 11:33N 54°32' E 011°26'1111.3
2014-Oct-26 10:33N 54°27' E 011°44'1110.6
2014-Oct-26 09:32N 54°26' E 012°02'9 9.5
2014-Oct-26 08:33N 54°33' E 012°13'1210.6
2014-Oct-26 07:28N 54°41' E 012°27'1111.3
2014-Oct-26 06:31N 54°47' E 012°43'3411.4
2014-Oct-26 03:33N 54°58' E 013°38'1211.6
2014-Oct-26 02:33N 55°03' E 013°57'1111.1
2014-Oct-26 01:33N 55°10' E 014°12'1211.7
2014-Oct-26 00:33N 55°19' E 014°25'1111.4
2014-Oct-25 23:33N 55°27' E 014°38'1111.4
2014-Oct-25 22:33N 55°32' E 014°56'1111.2
2014-Oct-25 21:33N 55°38' E 015°14'3311.0
2014-Oct-25 18:33N 55°54' E 016°05'1111.0
2014-Oct-25 17:33N 55°60' E 016°21'1211.0
2014-Oct-25 16:26N 56°07' E 016°40'2010.6
2014-Oct-25 14:32N 56°24' E 016°58'2110.2
2014-Oct-25 12:29N 56°44' E 017°11'9 9.4
2014-Oct-25 11:32N 56°52' E 017°16'9 9.0
2014-Oct-25 10:33N 57°00' E 017°22'9 8.6
2014-Oct-25 09:33N 57°08' E 017°27'9 8.7
2014-Oct-25 08:33N 57°17' E 017°33'8 8.4
2014-Oct-25 07:33N 57°24' E 017°38'9 8.6
2014-Oct-25 06:30N 57°33' E 017°43'65 9.0
2014-Oct-24 23:16N 58°37' E 017°15'912.4
2014-Oct-24 22:33N 58°37' E 016°59'1212.4
2014-Oct-24 21:33N 58°38' E 016°35'1010.4
2014-Oct-24 20:33N 58°37' E 016°15'0 0.0
2014-Oct-24 19:31N 58°37' E 016°15'0 0.0
2014-Oct-24 18:31N 58°37' E 016°15'0 0.0
2014-Oct-24 17:31N 58°37' E 016°15'0 0.0
2014-Oct-24 16:31N 58°37' E 016°15'0 0.0
2014-Oct-24 15:25N 58°37' E 016°15'0 0.0
2014-Oct-24 14:19N 58°37' E 016°15'0 0.0
2014-Oct-24 13:28N 58°37' E 016°15'0 0.0
2014-Oct-24 12:31N 58°37' E 016°15'0 0.0
2014-Oct-24 11:28N 58°37' E 016°15'0 0.0
2014-Oct-24 10:28N 58°37' E 016°15'0 0.0
2014-Oct-24 09:31N 58°37' E 016°15'0 0.0
2014-Oct-24 08:31N 58°37' E 016°15'0 0.0
2014-Oct-24 07:28N 58°37' E 016°15'0 0.0
2014-Oct-24 06:31N 58°37' E 016°15'0 0.0
2014-Oct-24 05:31N 58°37' E 016°15'0 0.0
2014-Oct-24 04:28N 58°37' E 016°15'0 0.0
2014-Oct-24 03:34N 58°37' E 016°15'8 7.7
2014-Oct-24 02:33N 58°39' E 016°29'1211.9
2014-Oct-24 01:33N 58°36' E 016°52'1212.1
2014-Oct-24 00:34N 58°37' E 017°15'186 9.6
2014-Oct-23 05:14N 55°39' E 015°30'811.3
2014-Oct-23 04:32N 55°35' E 015°18'1111.5
2014-Oct-23 03:34N 55°30' E 015°00'1111.4
2014-Oct-23 02:33N 55°25' E 014°42'1111.0
2014-Oct-23 01:34N 55°17' E 014°29'1111.4
2014-Oct-23 00:34N 55°08' E 014°17'1111.4
2014-Oct-22 23:34N 55°00' E 014°02'1211.6
2014-Oct-22 22:33N 54°57' E 013°43'4911.2
2014-Oct-22 18:13N 54°38' E 012°25'811.0
2014-Oct-22 17:28N 54°31' E 012°16'910.2
2014-Oct-22 16:33N 54°24' E 012°05'1111.2
2014-Oct-22 15:33N 54°25' E 011°46'  
Track history (hours):
 
Tides and Currents Weather Stations Pressure Air Temp Water Temp Dewpoint Dewpoint Depression Visibility Wind Speed Wind Dir Waves Ship Positions

Mississippi Star

Last reported at 2014-Oct-31 19:25 UTC. Time now 2014-Oct-31 20:11 UTC.
Position N 55°15' E 014°20'.

Length 128 m; draft 5.7 m.

Type: Ship. MMSI: 248621000.

Date/timePositionNaut miles runAvg speedWind from/ knotsBaromVisibWave heightAir tempDewpointWater temp
2014-Oct-31 19:25N 55°15' E 014°20'1011.3
2014-Oct-31 18:33N 55°23' E 014°31'1211.5
2014-Oct-31 17:33N 55°30' E 014°47'2411.5
2014-Oct-31 15:26N 55°41' E 015°25'29 9.7
2014-Oct-31 12:25N 55°56' E 016°10'7 8.3
2014-Oct-31 11:33N 55°60' E 016°21'36 8.2
2014-Oct-31 07:11N 56°28' E 017°01'911.9
2014-Oct-31 06:27N 56°36' E 017°06'1111.8
2014-Oct-31 05:33N 56°46' E 017°12'1211.7
2014-Oct-31 04:33N 56°57' E 017°20'1211.6
2014-Oct-31 03:33N 57°08' E 017°27'1211.6
2014-Oct-31 02:33N 57°19' E 017°34'1211.5
2014-Oct-31 01:33N 57°29' E 017°42'1211.6
2014-Oct-31 00:33N 57°40' E 017°50'105 9.1
2014-Oct-30 13:06N 59°23' E 018°27'3 5.0
2014-Oct-30 12:26N 59°22' E 018°21'7 0.5
2014-Oct-30 00:17N 59°20' E 018°08'0 0.0
2014-Oct-29 22:17N 59°20' E 018°08'0 0.0
2014-Oct-29 21:29N 59°20' E 018°08'0 0.0
2014-Oct-29 20:20N 59°20' E 018°08'0 0.0
2014-Oct-29 18:17N 59°20' E 018°08'0 0.0
2014-Oct-29 17:29N 59°20' E 018°08'0 0.0
2014-Oct-29 16:27N 59°20' E 018°08'3 3.7
2014-Oct-29 15:33N 59°21' E 018°15'6 5.9
2014-Oct-29 14:29N 59°25' E 018°24'99 7.1
2014-Oct-29 00:33N 57°47' E 018°03'1212.0
2014-Oct-28 23:33N 57°36' E 017°54'1211.7
2014-Oct-28 22:33N 57°25' E 017°46'1211.7
2014-Oct-28 21:33N 57°14' E 017°38'1211.9
2014-Oct-28 20:33N 57°03' E 017°30'1211.7
2014-Oct-28 19:33N 56°52' E 017°23'1211.8
2014-Oct-28 18:33N 56°41' E 017°15'1211.6
2014-Oct-28 17:33N 56°30' E 017°07'1211.6
2014-Oct-28 16:33N 56°19' E 016°60'1211.7
2014-Oct-28 15:33N 56°08' E 016°52'1511.2
2014-Oct-28 14:13N 55°58' E 016°33'1011.9
2014-Oct-28 13:23N 55°53' E 016°17'1011.6
2014-Oct-28 12:33N 55°49' E 016°02'1211.6
2014-Oct-28 11:33N 55°43' E 015°44'1211.7
2014-Oct-28 10:30N 55°37' E 015°25'1111.9
2014-Oct-28 09:33N 55°32' E 015°07'1211.7
2014-Oct-28 08:33N 55°26' E 014°50'1111.0
2014-Oct-28 07:33N 55°20' E 014°33'1313.0
2014-Oct-28 06:33N 55°09' E 014°20'1212.2
2014-Oct-28 05:33N 55°01' E 014°05'1212.3
2014-Oct-28 04:33N 54°57' E 013°45'1212.0
2014-Oct-28 03:32N 54°53' E 013°24'1211.7
2014-Oct-28 02:30N 54°49' E 013°04'1112.1
2014-Oct-28 01:33N 54°45' E 012°46'1212.2
2014-Oct-28 00:33N 54°39' E 012°27'1211.6
2014-Oct-27 23:33N 54°30' E 012°15'1111.5
2014-Oct-27 22:33N 54°24' E 011°58'1312.6
2014-Oct-27 21:32N 54°27' E 011°37'1312.7
2014-Oct-27 20:33N 54°33' E 011°18'1212.4
2014-Oct-27 19:33N 54°39' E 010°59'1210.1
2014-Oct-27 18:20N 54°50' E 010°52'48 2.0
2014-Oct-26 18:27N 55°39' E 010°47'3210.9
2014-Oct-26 15:28N 55°07' E 011°03'1312.0
2014-Oct-26 14:24N 54°55' E 010°55'2910.3
2014-Oct-26 11:33N 54°32' E 011°26'1111.3
2014-Oct-26 10:33N 54°27' E 011°44'1110.6
2014-Oct-26 09:32N 54°26' E 012°02'9 9.5
2014-Oct-26 08:33N 54°33' E 012°13'1210.6
2014-Oct-26 07:28N 54°41' E 012°27'1111.3
2014-Oct-26 06:31N 54°47' E 012°43'3411.4
2014-Oct-26 03:33N 54°58' E 013°38'1211.6
2014-Oct-26 02:33N 55°03' E 013°57'1111.1
2014-Oct-26 01:33N 55°10' E 014°12'1211.7
2014-Oct-26 00:33N 55°19' E 014°25'1111.4
2014-Oct-25 23:33N 55°27' E 014°38'1111.4
2014-Oct-25 22:33N 55°32' E 014°56'1111.2
2014-Oct-25 21:33N 55°38' E 015°14'3311.0
2014-Oct-25 18:33N 55°54' E 016°05'1111.0
2014-Oct-25 17:33N 55°60' E 016°21'1211.0
2014-Oct-25 16:26N 56°07' E 016°40'2010.6
2014-Oct-25 14:32N 56°24' E 016°58'2110.2
2014-Oct-25 12:29N 56°44' E 017°11'9 9.4
2014-Oct-25 11:32N 56°52' E 017°16'9 9.0
2014-Oct-25 10:33N 57°00' E 017°22'9 8.6
2014-Oct-25 09:33N 57°08' E 017°27'9 8.7
2014-Oct-25 08:33N 57°17' E 017°33'8 8.4
2014-Oct-25 07:33N 57°24' E 017°38'9 8.6
2014-Oct-25 06:30N 57°33' E 017°43'65 9.0
2014-Oct-24 23:16N 58°37' E 017°15'912.4
2014-Oct-24 22:33N 58°37' E 016°59'1212.4
2014-Oct-24 21:33N 58°38' E 016°35'1010.4
2014-Oct-24 20:33N 58°37' E 016°15'0 0.0
2014-Oct-24 19:31N 58°37' E 016°15'0 0.0
2014-Oct-24 18:31N 58°37' E 016°15'0 0.0
2014-Oct-24 17:31N 58°37' E 016°15'0 0.0
2014-Oct-24 16:31N 58°37' E 016°15'0 0.0
2014-Oct-24 15:25N 58°37' E 016°15'0 0.0
2014-Oct-24 14:19N 58°37' E 016°15'0 0.0
2014-Oct-24 13:28N 58°37' E 016°15'0 0.0
2014-Oct-24 12:31N 58°37' E 016°15'0 0.0
2014-Oct-24 11:28N 58°37' E 016°15'0 0.0
2014-Oct-24 10:28N 58°37' E 016°15'0 0.0
2014-Oct-24 09:31N 58°37' E 016°15'0 0.0
2014-Oct-24 08:31N 58°37' E 016°15'0 0.0
2014-Oct-24 07:28N 58°37' E 016°15'0 0.0
2014-Oct-24 06:31N 58°37' E 016°15'0 0.0
2014-Oct-24 05:31N 58°37' E 016°15'0 0.0
2014-Oct-24 04:28N 58°37' E 016°15'0 0.0
2014-Oct-24 03:34N 58°37' E 016°15'8 7.7
2014-Oct-24 02:33N 58°39' E 016°29'1211.9
2014-Oct-24 01:33N 58°36' E 016°52'1212.1
2014-Oct-24 00:34N 58°37' E 017°15'186 9.6
2014-Oct-23 05:14N 55°39' E 015°30'811.3
2014-Oct-23 04:32N 55°35' E 015°18'1111.5
2014-Oct-23 03:34N 55°30' E 015°00'1111.4
2014-Oct-23 02:33N 55°25' E 014°42'1111.0
2014-Oct-23 01:34N 55°17' E 014°29'1111.4
2014-Oct-23 00:34N 55°08' E 014°17'1111.4
2014-Oct-22 23:34N 55°00' E 014°02'1211.6
2014-Oct-22 22:33N 54°57' E 013°43'4911.2
2014-Oct-22 18:13N 54°38' E 012°25'811.0
2014-Oct-22 17:28N 54°31' E 012°16'910.2
2014-Oct-22 16:33N 54°24' E 012°05'1111.2
2014-Oct-22 15:33N 54°25' E 011°46'  

Dump ship's entire track history